Terminal Aerodrome Forecast
Issued by NWS Memphis, TN

Home | Current Version | Previous Version | Text Only | Print | Product List | Glossary On
Versions: 1 2 3 4 5 6 7 8 9 10 11 12 13 14 15
000
FTUS44 KMEG 241700
TAFMKL
TAF
KMKL 241721Z 2418/2518 30005KT P6SM SCT040
     FM250000 00000KT P6SM SKC
      TEMPO 2508/2512 3SM BR
     FM251400 25007KT P6SM SCT040=

USA.gov is the U.S. government's official web portal to all federal, state and local government web resources and services.